sensor_id;sensor_type;location;lat;lon;timestamp;temperature;humidity
17182;DHT22;8706;48.254;16.422;2024-02-23T00:00:54;19.70;61.20
17182;DHT22;8706;48.254;16.422;2024-02-23T00:03:22;19.70;61.20
17182;DHT22;8706;48.254;16.422;2024-02-23T00:05:49;19.70;61.20
17182;DHT22;8706;48.254;16.422;2024-02-23T00:08:16;19.70;61.30
17182;DHT22;8706;48.254;16.422;2024-02-23T00:10:42;19.70;61.30
17182;DHT22;8706;48.254;16.422;2024-02-23T00:13:09;19.70;61.30
17182;DHT22;8706;48.254;16.422;2024-02-23T00:15:35;19.70;61.20
17182;DHT22;8706;48.254;16.422;2024-02-23T00:18:03;19.70;61.20
17182;DHT22;8706;48.254;16.422;2024-02-23T00:20:31;19.70;61.30
17182;DHT22;8706;48.254;16.422;2024-02-23T00:22:58;19.70;61.30
17182;DHT22;8706;48.254;16.422;2024-02-23T00:25:25;19.70;61.30
17182;DHT22;8706;48.254;16.422;2024-02-23T00:27:52;19.70;61.30
17182;DHT22;8706;48.254;16.422;2024-02-23T00:30:19;19.60;61.20
17182;DHT22;8706;48.254;16.422;2024-02-23T00:32:47;19.70;61.20
17182;DHT22;8706;48.254;16.422;2024-02-23T00:35:14;19.60;61.20
17182;DHT22;8706;48.254;16.422;2024-02-23T00:37:42;19.70;61.30
17182;DHT22;8706;48.254;16.422;2024-02-23T00:40:10;19.60;61.20
17182;DHT22;8706;48.254;16.422;2024-02-23T00:42:37;19.70;61.30
17182;DHT22;8706;48.254;16.422;2024-02-23T00:45:05;19.70;61.20
17182;DHT22;8706;48.254;16.422;2024-02-23T00:47:32;19.70;61.30
17182;DHT22;8706;48.254;16.422;2024-02-23T00:50:00;19.70;61.20
17182;DHT22;8706;48.254;16.422;2024-02-23T00:52:27;19.70;61.30
17182;DHT22;8706;48.254;16.422;2024-02-23T00:54:56;19.60;61.30
17182;DHT22;8706;48.254;16.422;2024-02-23T00:57:22;19.70;61.30
17182;DHT22;8706;48.254;16.422;2024-02-23T00:59:55;19.60;61.20
17182;DHT22;8706;48.254;16.422;2024-02-23T01:02:22;19.60;61.30
17182;DHT22;8706;48.254;16.422;2024-02-23T01:04:49;19.70;61.20
17182;DHT22;8706;48.254;16.422;2024-02-23T01:07:15;19.70;61.20
17182;DHT22;8706;48.254;16.422;2024-02-23T01:09:42;19.70;61.20
17182;DHT22;8706;48.254;16.422;2024-02-23T01:12:10;19.70;61.20
17182;DHT22;8706;48.254;16.422;2024-02-23T01:14:37;19.60;61.20
17182;DHT22;8706;48.254;16.422;2024-02-23T01:17:04;19.60;61.30
17182;DHT22;8706;48.254;16.422;2024-02-23T01:19:31;19.60;61.20
17182;DHT22;8706;48.254;16.422;2024-02-23T01:21:58;19.70;61.30
17182;DHT22;8706;48.254;16.422;2024-02-23T01:24:26;19.70;61.30
17182;DHT22;8706;48.254;16.422;2024-02-23T01:26:55;19.60;61.20
17182;DHT22;8706;48.254;16.422;2024-02-23T01:29:23;19.60;61.30
17182;DHT22;8706;48.254;16.422;2024-02-23T01:31:50;19.60;61.20
17182;DHT22;8706;48.254;16.422;2024-02-23T01:34:17;19.70;61.30
17182;DHT22;8706;48.254;16.422;2024-02-23T01:36:44;19.60;61.30
17182;DHT22;8706;48.254;16.422;2024-02-23T01:39:11;19.60;61.30
17182;DHT22;8706;48.254;16.422;2024-02-23T01:41:38;19.60;61.30
17182;DHT22;8706;48.254;16.422;2024-02-23T01:44:05;19.70;61.30
17182;DHT22;8706;48.254;16.422;2024-02-23T01:46:33;19.70;61.30
17182;DHT22;8706;48.254;16.422;2024-02-23T01:49:00;19.60;61.20
17182;DHT22;8706;48.254;16.422;2024-02-23T01:51:27;19.60;61.30
17182;DHT22;8706;48.254;16.422;2024-02-23T01:53:54;19.60;61.30
17182;DHT22;8706;48.254;16.422;2024-02-23T01:56:21;19.60;61.30
17182;DHT22;8706;48.254;16.422;2024-02-23T01:58:48;19.60;61.30
17182;DHT22;8706;48.254;16.422;2024-02-23T02:01:15;19.60;61.30
17182;DHT22;8706;48.254;16.422;2024-02-23T02:03:44;19.60;61.30
17182;DHT22;8706;48.254;16.422;2024-02-23T02:06:11;19.60;61.30
17182;DHT22;8706;48.254;16.422;2024-02-23T02:08:38;19.60;61.30
17182;DHT22;8706;48.254;16.422;2024-02-23T02:11:05;19.60;61.30
17182;DHT22;8706;48.254;16.422;2024-02-23T02:13:32;19.60;61.30
17182;DHT22;8706;48.254;16.422;2024-02-23T02:16:00;19.60;61.30
17182;DHT22;8706;48.254;16.422;2024-02-23T02:18:27;19.60;61.30
17182;DHT22;8706;48.254;16.422;2024-02-23T02:20:56;19.60;61.30
17182;DHT22;8706;48.254;16.422;2024-02-23T02:23:24;19.60;61.40
17182;DHT22;8706;48.254;16.422;2024-02-23T02:25:55;19.60;61.40
17182;DHT22;8706;48.254;16.422;2024-02-23T02:28:24;19.60;61.40
17182;DHT22;8706;48.254;16.422;2024-02-23T02:30:51;19.60;61.40
17182;DHT22;8706;48.254;16.422;2024-02-23T02:33:18;19.60;61.30
17182;DHT22;8706;48.254;16.422;2024-02-23T02:35:45;19.60;61.30
17182;DHT22;8706;48.254;16.422;2024-02-23T02:38:13;19.60;61.40
17182;DHT22;8706;48.254;16.422;2024-02-23T02:40:40;19.60;61.40
17182;DHT22;8706;48.254;16.422;2024-02-23T02:43:07;19.60;61.30
17182;DHT22;8706;48.254;16.422;2024-02-23T02:45:37;19.60;61.30
17182;DHT22;8706;48.254;16.422;2024-02-23T02:48:04;19.60;61.40
17182;DHT22;8706;48.254;16.422;2024-02-23T02:50:31;19.60;61.30
17182;DHT22;8706;48.254;16.422;2024-02-23T02:52:58;19.60;61.40
17182;DHT22;8706;48.254;16.422;2024-02-23T02:55:26;19.60;61.30
17182;DHT22;8706;48.254;16.422;2024-02-23T02:57:53;19.60;61.30
17182;DHT22;8706;48.254;16.422;2024-02-23T03:00:20;19.60;61.40
17182;DHT22;8706;48.254;16.422;2024-02-23T03:02:46;19.60;61.30
17182;DHT22;8706;48.254;16.422;2024-02-23T03:05:13;19.60;61.40
17182;DHT22;8706;48.254;16.422;2024-02-23T03:07:40;19.60;61.50
17182;DHT22;8706;48.254;16.422;2024-02-23T03:10:07;19.60;61.40
17182;DHT22;8706;48.254;16.422;2024-02-23T03:12:36;19.60;61.30
17182;DHT22;8706;48.254;16.422;2024-02-23T03:15:03;19.60;61.40
17182;DHT22;8706;48.254;16.422;2024-02-23T03:17:31;19.60;61.40
17182;DHT22;8706;48.254;16.422;2024-02-23T03:19:58;19.60;61.40
17182;DHT22;8706;48.254;16.422;2024-02-23T03:22:25;19.60;61.30
17182;DHT22;8706;48.254;16.422;2024-02-23T03:24:52;19.60;61.40
17182;DHT22;8706;48.254;16.422;2024-02-23T03:27:19;19.60;61.40
17182;DHT22;8706;48.254;16.422;2024-02-23T03:29:47;19.60;61.40
17182;DHT22;8706;48.254;16.422;2024-02-23T03:32:14;19.60;61.40
17182;DHT22;8706;48.254;16.422;2024-02-23T03:34:41;19.60;61.40
17182;DHT22;8706;48.254;16.422;2024-02-23T03:37:09;19.60;61.40
17182;DHT22;8706;48.254;16.422;2024-02-23T03:39:35;19.60;61.30
17182;DHT22;8706;48.254;16.422;2024-02-23T03:42:03;19.60;61.40
17182;DHT22;8706;48.254;16.422;2024-02-23T03:44:30;19.60;61.40
17182;DHT22;8706;48.254;16.422;2024-02-23T03:46:58;19.60;61.30
17182;DHT22;8706;48.254;16.422;2024-02-23T03:49:25;19.60;61.40
17182;DHT22;8706;48.254;16.422;2024-02-23T03:51:52;19.60;61.40
17182;DHT22;8706;48.254;16.422;2024-02-23T03:54:19;19.60;61.40
17182;DHT22;8706;48.254;16.422;2024-02-23T03:56:46;19.60;61.40
17182;DHT22;8706;48.254;16.422;2024-02-23T03:59:13;19.60;61.30
17182;DHT22;8706;48.254;16.422;2024-02-23T04:01:40;19.60;62.00
17182;DHT22;8706;48.254;16.422;2024-02-23T04:04:08;19.60;61.30
17182;DHT22;8706;48.254;16.422;2024-02-23T04:06:35;19.60;61.30
17182;DHT22;8706;48.254;16.422;2024-02-23T04:09:02;19.60;61.40
17182;DHT22;8706;48.254;16.422;2024-02-23T04:11:30;19.60;61.40
17182;DHT22;8706;48.254;16.422;2024-02-23T04:13:57;19.60;61.40
17182;DHT22;8706;48.254;16.422;2024-02-23T04:16:24;19.60;61.30
17182;DHT22;8706;48.254;16.422;2024-02-23T04:18:52;19.60;61.30
17182;DHT22;8706;48.254;16.422;2024-02-23T04:21:20;19.60;61.30
17182;DHT22;8706;48.254;16.422;2024-02-23T04:23:47;19.60;61.30
17182;DHT22;8706;48.254;16.422;2024-02-23T04:26:14;19.60;61.30
17182;DHT22;8706;48.254;16.422;2024-02-23T04:28:41;19.60;61.40
17182;DHT22;8706;48.254;16.422;2024-02-23T04:31:09;19.60;61.40
17182;DHT22;8706;48.254;16.422;2024-02-23T04:33:36;19.60;61.40
17182;DHT22;8706;48.254;16.422;2024-02-23T04:36:03;19.60;61.30
17182;DHT22;8706;48.254;16.422;2024-02-23T04:38:32;19.60;61.40
17182;DHT22;8706;48.254;16.422;2024-02-23T04:41:03;19.60;61.30
17182;DHT22;8706;48.254;16.422;2024-02-23T04:43:30;19.60;61.30
17182;DHT22;8706;48.254;16.422;2024-02-23T04:45:57;19.60;61.40
17182;DHT22;8706;48.254;16.422;2024-02-23T04:48:24;19.60;61.30
17182;DHT22;8706;48.254;16.422;2024-02-23T04:50:51;19.60;61.30
17182;DHT22;8706;48.254;16.422;2024-02-23T04:53:18;19.60;61.30
17182;DHT22;8706;48.254;16.422;2024-02-23T04:55:47;19.60;61.30
17182;DHT22;8706;48.254;16.422;2024-02-23T04:58:14;19.60;61.30
17182;DHT22;8706;48.254;16.422;2024-02-23T05:00:41;19.60;61.30
17182;DHT22;8706;48.254;16.422;2024-02-23T05:03:08;19.60;61.40
17182;DHT22;8706;48.254;16.422;2024-02-23T05:05:35;19.60;61.30
17182;DHT22;8706;48.254;16.422;2024-02-23T05:08:02;19.60;61.30
17182;DHT22;8706;48.254;16.422;2024-02-23T05:10:29;19.60;61.30
17182;DHT22;8706;48.254;16.422;2024-02-23T05:12:57;19.60;61.30
17182;DHT22;8706;48.254;16.422;2024-02-23T05:15:24;19.60;61.30
17182;DHT22;8706;48.254;16.422;2024-02-23T05:17:51;19.60;61.30
17182;DHT22;8706;48.254;16.422;2024-02-23T05:20:18;19.60;61.30
17182;DHT22;8706;48.254;16.422;2024-02-23T05:22:45;19.50;61.40
17182;DHT22;8706;48.254;16.422;2024-02-23T05:25:12;19.60;61.30
17182;DHT22;8706;48.254;16.422;2024-02-23T05:27:39;19.60;61.30
17182;DHT22;8706;48.254;16.422;2024-02-23T05:30:08;19.60;61.30
17182;DHT22;8706;48.254;16.422;2024-02-23T05:32:36;19.50;61.30
17182;DHT22;8706;48.254;16.422;2024-02-23T05:35:03;19.60;61.30
17182;DHT22;8706;48.254;16.422;2024-02-23T05:37:30;19.60;61.20
17182;DHT22;8706;48.254;16.422;2024-02-23T05:39:57;19.60;61.30
17182;DHT22;8706;48.254;16.422;2024-02-23T05:42:25;19.60;61.30
17182;DHT22;8706;48.254;16.422;2024-02-23T05:44:52;19.60;61.30
17182;DHT22;8706;48.254;16.422;2024-02-23T05:47:20;19.60;61.30
17182;DHT22;8706;48.254;16.422;2024-02-23T05:49:47;19.60;61.30
17182;DHT22;8706;48.254;16.422;2024-02-23T05:52:14;19.60;61.20
17182;DHT22;8706;48.254;16.422;2024-02-23T05:54:41;19.60;61.20
17182;DHT22;8706;48.254;16.422;2024-02-23T05:57:08;19.60;61.20
17182;DHT22;8706;48.254;16.422;2024-02-23T05:59:35;19.60;61.30
17182;DHT22;8706;48.254;16.422;2024-02-23T06:02:01;19.60;61.20
17182;DHT22;8706;48.254;16.422;2024-02-23T06:04:30;19.60;61.20
17182;DHT22;8706;48.254;16.422;2024-02-23T06:06:57;19.60;61.20
17182;DHT22;8706;48.254;16.422;2024-02-23T06:09:23;19.60;61.10
17182;DHT22;8706;48.254;16.422;2024-02-23T06:11:50;19.60;61.20
17182;DHT22;8706;48.254;16.422;2024-02-23T06:14:17;19.60;61.20
17182;DHT22;8706;48.254;16.422;2024-02-23T06:16:44;19.60;61.20
17182;DHT22;8706;48.254;16.422;2024-02-23T06:19:11;19.60;61.10
17182;DHT22;8706;48.254;16.422;2024-02-23T06:21:39;19.60;61.10
17182;DHT22;8706;48.254;16.422;2024-02-23T06:24:07;19.60;61.10
17182;DHT22;8706;48.254;16.422;2024-02-23T06:26:34;19.60;61.20
17182;DHT22;8706;48.254;16.422;2024-02-23T06:29:01;19.60;61.20
17182;DHT22;8706;48.254;16.422;2024-02-23T06:31:29;19.60;61.20
17182;DHT22;8706;48.254;16.422;2024-02-23T06:33:56;19.60;61.10
17182;DHT22;8706;48.254;16.422;2024-02-23T06:36:23;19.60;61.00
17182;DHT22;8706;48.254;16.422;2024-02-23T06:38:51;19.70;61.70
17182;DHT22;8706;48.254;16.422;2024-02-23T06:41:18;19.70;61.00
17182;DHT22;8706;48.254;16.422;2024-02-23T06:43:44;19.60;61.00
17182;DHT22;8706;48.254;16.422;2024-02-23T06:46:12;19.70;60.90
17182;DHT22;8706;48.254;16.422;2024-02-23T06:48:38;19.70;60.90
17182;DHT22;8706;48.254;16.422;2024-02-23T06:51:06;19.60;60.90
17182;DHT22;8706;48.254;16.422;2024-02-23T06:53:35;19.60;60.90
17182;DHT22;8706;48.254;16.422;2024-02-23T06:56:03;19.70;60.90
17182;DHT22;8706;48.254;16.422;2024-02-23T06:58:30;19.70;60.80
17182;DHT22;8706;48.254;16.422;2024-02-23T07:00:57;19.70;60.80
17182;DHT22;8706;48.254;16.422;2024-02-23T07:03:24;19.70;60.80
17182;DHT22;8706;48.254;16.422;2024-02-23T07:05:51;19.70;60.80
17182;DHT22;8706;48.254;16.422;2024-02-23T07:08:18;19.70;60.70
17182;DHT22;8706;48.254;16.422;2024-02-23T07:10:45;19.80;60.60
17182;DHT22;8706;48.254;16.422;2024-02-23T07:13:13;19.80;60.50
17182;DHT22;8706;48.254;16.422;2024-02-23T07:15:40;19.90;60.50
17182;DHT22;8706;48.254;16.422;2024-02-23T07:18:07;19.90;60.50
17182;DHT22;8706;48.254;16.422;2024-02-23T07:20:35;19.80;60.40
17182;DHT22;8706;48.254;16.422;2024-02-23T07:23:02;19.90;60.50
17182;DHT22;8706;48.254;16.422;2024-02-23T07:25:29;19.90;60.50
17182;DHT22;8706;48.254;16.422;2024-02-23T07:27:56;19.80;60.40
17182;DHT22;8706;48.254;16.422;2024-02-23T07:30:25;19.90;60.50
17182;DHT22;8706;48.254;16.422;2024-02-23T07:32:52;19.90;60.50
17182;DHT22;8706;48.254;16.422;2024-02-23T07:35:19;19.90;60.40
17182;DHT22;8706;48.254;16.422;2024-02-23T07:37:46;19.90;60.30
17182;DHT22;8706;48.254;16.422;2024-02-23T07:40:13;19.90;60.40
17182;DHT22;8706;48.254;16.422;2024-02-23T07:42:40;19.90;60.30
17182;DHT22;8706;48.254;16.422;2024-02-23T07:45:07;19.90;60.40
17182;DHT22;8706;48.254;16.422;2024-02-23T07:47:36;19.90;60.40
17182;DHT22;8706;48.254;16.422;2024-02-23T07:50:03;19.90;60.40
17182;DHT22;8706;48.254;16.422;2024-02-23T07:52:30;19.90;60.30
17182;DHT22;8706;48.254;16.422;2024-02-23T07:54:56;19.90;60.50
17182;DHT22;8706;48.254;16.422;2024-02-23T07:57:25;19.80;60.30
17182;DHT22;8706;48.254;16.422;2024-02-23T07:59:52;19.90;60.40
17182;DHT22;8706;48.254;16.422;2024-02-23T08:02:19;19.80;60.30
17182;DHT22;8706;48.254;16.422;2024-02-23T08:04:47;19.80;60.20
17182;DHT22;8706;48.254;16.422;2024-02-23T08:07:15;19.80;60.30
17182;DHT22;8706;48.254;16.422;2024-02-23T08:09:42;19.80;60.30
17182;DHT22;8706;48.254;16.422;2024-02-23T08:12:10;19.80;60.30
17182;DHT22;8706;48.254;16.422;2024-02-23T08:14:39;19.80;60.30
17182;DHT22;8706;48.254;16.422;2024-02-23T08:17:06;19.80;60.20
17182;DHT22;8706;48.254;16.422;2024-02-23T08:19:33;19.80;60.30
17182;DHT22;8706;48.254;16.422;2024-02-23T08:22:01;19.80;60.30
17182;DHT22;8706;48.254;16.422;2024-02-23T08:24:28;19.80;60.30
17182;DHT22;8706;48.254;16.422;2024-02-23T08:26:55;19.80;60.30
17182;DHT22;8706;48.254;16.422;2024-02-23T08:29:22;19.80;60.30
17182;DHT22;8706;48.254;16.422;2024-02-23T08:31:49;19.80;60.30
17182;DHT22;8706;48.254;16.422;2024-02-23T08:34:16;19.90;60.40
17182;DHT22;8706;48.254;16.422;2024-02-23T08:36:43;19.90;60.30
17182;DHT22;8706;48.254;16.422;2024-02-23T08:39:11;19.80;60.30
17182;DHT22;8706;48.254;16.422;2024-02-23T08:41:38;19.90;60.40
17182;DHT22;8706;48.254;16.422;2024-02-23T08:44:05;19.90;60.30
17182;DHT22;8706;48.254;16.422;2024-02-23T08:46:32;19.90;60.20
17182;DHT22;8706;48.254;16.422;2024-02-23T08:48:59;19.90;60.20
17182;DHT22;8706;48.254;16.422;2024-02-23T08:51:26;19.90;60.30
17182;DHT22;8706;48.254;16.422;2024-02-23T08:53:52;19.90;60.30
17182;DHT22;8706;48.254;16.422;2024-02-23T08:56:22;19.90;60.30
17182;DHT22;8706;48.254;16.422;2024-02-23T08:58:49;19.90;60.40
17182;DHT22;8706;48.254;16.422;2024-02-23T09:01:16;19.90;60.30
17182;DHT22;8706;48.254;16.422;2024-02-23T09:03:42;19.90;60.20
17182;DHT22;8706;48.254;16.422;2024-02-23T09:06:09;19.90;60.10
17182;DHT22;8706;48.254;16.422;2024-02-23T09:08:36;19.90;60.10
17182;DHT22;8706;48.254;16.422;2024-02-23T09:11:03;19.90;60.10
17182;DHT22;8706;48.254;16.422;2024-02-23T09:13:31;19.90;60.00
17182;DHT22;8706;48.254;16.422;2024-02-23T09:15:58;20.00;60.00
17182;DHT22;8706;48.254;16.422;2024-02-23T09:18:25;20.10;60.00
17182;DHT22;8706;48.254;16.422;2024-02-23T09:20:52;20.10;59.90
17182;DHT22;8706;48.254;16.422;2024-02-23T09:23:19;20.10;59.90
17182;DHT22;8706;48.254;16.422;2024-02-23T09:25:45;20.10;59.90
17182;DHT22;8706;48.254;16.422;2024-02-23T09:28:12;20.10;59.80
17182;DHT22;8706;48.254;16.422;2024-02-23T09:30:40;20.10;59.90
17182;DHT22;8706;48.254;16.422;2024-02-23T09:33:07;20.10;59.80
17182;DHT22;8706;48.254;16.422;2024-02-23T09:35:34;20.10;59.80
17182;DHT22;8706;48.254;16.422;2024-02-23T09:38:01;20.10;59.80
17182;DHT22;8706;48.254;16.422;2024-02-23T09:40:28;20.10;59.80
17182;DHT22;8706;48.254;16.422;2024-02-23T09:42:57;20.10;59.80
17182;DHT22;8706;48.254;16.422;2024-02-23T09:45:24;20.20;59.80
17182;DHT22;8706;48.254;16.422;2024-02-23T09:47:54;20.20;59.70
17182;DHT22;8706;48.254;16.422;2024-02-23T09:50:23;20.20;59.70
17182;DHT22;8706;48.254;16.422;2024-02-23T09:52:50;20.20;59.70
17182;DHT22;8706;48.254;16.422;2024-02-23T09:55:17;20.20;59.70
17182;DHT22;8706;48.254;16.422;2024-02-23T09:57:48;20.20;59.70
17182;DHT22;8706;48.254;16.422;2024-02-23T10:00:16;20.20;59.70
17182;DHT22;8706;48.254;16.422;2024-02-23T10:02:43;20.20;59.70
17182;DHT22;8706;48.254;16.422;2024-02-23T10:05:12;20.20;59.70
17182;DHT22;8706;48.254;16.422;2024-02-23T10:07:40;20.20;59.80
17182;DHT22;8706;48.254;16.422;2024-02-23T10:10:08;20.20;59.70
17182;DHT22;8706;48.254;16.422;2024-02-23T10:12:36;20.20;59.70
17182;DHT22;8706;48.254;16.422;2024-02-23T10:15:04;20.20;59.70
17182;DHT22;8706;48.254;16.422;2024-02-23T10:17:31;20.20;59.70
17182;DHT22;8706;48.254;16.422;2024-02-23T10:19:59;20.20;59.80
17182;DHT22;8706;48.254;16.422;2024-02-23T10:22:31;20.20;59.70
17182;DHT22;8706;48.254;16.422;2024-02-23T10:24:59;20.20;59.80
17182;DHT22;8706;48.254;16.422;2024-02-23T10:27:26;20.20;59.80
17182;DHT22;8706;48.254;16.422;2024-02-23T10:29:53;20.10;59.70
17182;DHT22;8706;48.254;16.422;2024-02-23T10:32:20;20.20;59.70
17182;DHT22;8706;48.254;16.422;2024-02-23T10:34:48;20.20;59.60
17182;DHT22;8706;48.254;16.422;2024-02-23T10:37:16;20.20;59.60
17182;DHT22;8706;48.254;16.422;2024-02-23T10:39:46;20.30;59.60
17182;DHT22;8706;48.254;16.422;2024-02-23T10:42:12;20.30;59.50
17182;DHT22;8706;48.254;16.422;2024-02-23T10:44:43;20.30;59.50
17182;DHT22;8706;48.254;16.422;2024-02-23T10:47:11;20.30;59.50
17182;DHT22;8706;48.254;16.422;2024-02-23T10:49:38;20.30;59.60
17182;DHT22;8706;48.254;16.422;2024-02-23T10:52:07;20.30;59.40
17182;DHT22;8706;48.254;16.422;2024-02-23T10:54:38;20.40;59.40
17182;DHT22;8706;48.254;16.422;2024-02-23T10:57:07;20.40;59.40
17182;DHT22;8706;48.254;16.422;2024-02-23T10:59:34;20.40;59.60
17182;DHT22;8706;48.254;16.422;2024-02-23T11:02:02;20.50;59.20
17182;DHT22;8706;48.254;16.422;2024-02-23T11:04:31;20.60;59.10
17182;DHT22;8706;48.254;16.422;2024-02-23T11:06:59;20.60;59.70
17182;DHT22;8706;48.254;16.422;2024-02-23T11:09:31;20.50;59.10
17182;DHT22;8706;48.254;16.422;2024-02-23T11:11:58;20.50;59.20
17182;DHT22;8706;48.254;16.422;2024-02-23T11:14:35;20.50;59.20
17182;DHT22;8706;48.254;16.422;2024-02-23T11:17:03;20.50;59.20
17182;DHT22;8706;48.254;16.422;2024-02-23T11:19:33;20.50;59.20
17182;DHT22;8706;48.254;16.422;2024-02-23T11:22:01;20.50;59.20
17182;DHT22;8706;48.254;16.422;2024-02-23T11:24:29;20.50;59.20
17182;DHT22;8706;48.254;16.422;2024-02-23T11:26:56;20.60;59.10
17182;DHT22;8706;48.254;16.422;2024-02-23T11:29:26;20.60;59.00
17182;DHT22;8706;48.254;16.422;2024-02-23T11:31:55;20.50;59.10
17182;DHT22;8706;48.254;16.422;2024-02-23T11:34:27;20.50;59.20
17182;DHT22;8706;48.254;16.422;2024-02-23T11:36:54;20.50;59.30
17182;DHT22;8706;48.254;16.422;2024-02-23T11:39:22;20.40;59.30
17182;DHT22;8706;48.254;16.422;2024-02-23T11:41:49;20.40;59.50
17182;DHT22;8706;48.254;16.422;2024-02-23T11:44:16;20.40;59.50
17182;DHT22;8706;48.254;16.422;2024-02-23T11:46:43;20.40;59.50
17182;DHT22;8706;48.254;16.422;2024-02-23T11:49:12;20.30;59.50
17182;DHT22;8706;48.254;16.422;2024-02-23T11:51:39;20.40;59.60
17182;DHT22;8706;48.254;16.422;2024-02-23T11:54:07;20.30;59.50
17182;DHT22;8706;48.254;16.422;2024-02-23T11:56:34;20.30;59.60
17182;DHT22;8706;48.254;16.422;2024-02-23T11:59:01;20.30;60.10
17182;DHT22;8706;48.254;16.422;2024-02-23T12:01:29;20.30;59.60
17182;DHT22;8706;48.254;16.422;2024-02-23T12:03:57;20.30;59.60
17182;DHT22;8706;48.254;16.422;2024-02-23T12:06:25;20.30;59.60
17182;DHT22;8706;48.254;16.422;2024-02-23T12:08:56;20.30;59.60
17182;DHT22;8706;48.254;16.422;2024-02-23T12:11:24;20.40;59.60
17182;DHT22;8706;48.254;16.422;2024-02-23T12:13:50;20.40;59.50
17182;DHT22;8706;48.254;16.422;2024-02-23T12:16:17;20.40;59.50
17182;DHT22;8706;48.254;16.422;2024-02-23T12:18:44;20.30;59.50
17182;DHT22;8706;48.254;16.422;2024-02-23T12:21:11;20.30;59.60
17182;DHT22;8706;48.254;16.422;2024-02-23T12:23:41;20.30;59.60
17182;DHT22;8706;48.254;16.422;2024-02-23T12:26:08;20.30;59.60
17182;DHT22;8706;48.254;16.422;2024-02-23T12:28:35;20.30;59.60
17182;DHT22;8706;48.254;16.422;2024-02-23T12:31:02;20.30;59.60
17182;DHT22;8706;48.254;16.422;2024-02-23T12:33:31;20.20;59.60
17182;DHT22;8706;48.254;16.422;2024-02-23T12:35:58;20.30;59.60
17182;DHT22;8706;48.254;16.422;2024-02-23T12:38:25;20.30;59.70
17182;DHT22;8706;48.254;16.422;2024-02-23T12:40:54;20.30;59.70
17182;DHT22;8706;48.254;16.422;2024-02-23T12:43:21;20.20;59.70
17182;DHT22;8706;48.254;16.422;2024-02-23T12:45:50;20.20;59.70
17182;DHT22;8706;48.254;16.422;2024-02-23T12:48:17;20.20;59.80
17182;DHT22;8706;48.254;16.422;2024-02-23T12:50:44;20.20;59.80
17182;DHT22;8706;48.254;16.422;2024-02-23T12:53:30;20.20;59.90
17182;DHT22;8706;48.254;16.422;2024-02-23T12:56:00;20.10;59.90
17182;DHT22;8706;48.254;16.422;2024-02-23T12:58:27;20.10;59.90
17182;DHT22;8706;48.254;16.422;2024-02-23T13:00:55;20.10;60.00
17182;DHT22;8706;48.254;16.422;2024-02-23T13:03:22;20.10;60.00
17182;DHT22;8706;48.254;16.422;2024-02-23T13:05:49;20.10;60.00
17182;DHT22;8706;48.254;16.422;2024-02-23T13:08:17;20.10;60.00
17182;DHT22;8706;48.254;16.422;2024-02-23T13:10:44;20.00;60.00
17182;DHT22;8706;48.254;16.422;2024-02-23T13:13:12;20.00;60.00
17182;DHT22;8706;48.254;16.422;2024-02-23T13:15:41;20.00;60.50
17182;DHT22;8706;48.254;16.422;2024-02-23T13:18:07;20.00;60.00
17182;DHT22;8706;48.254;16.422;2024-02-23T13:20:35;20.00;60.00
17182;DHT22;8706;48.254;16.422;2024-02-23T13:23:02;20.00;60.10
17182;DHT22;8706;48.254;16.422;2024-02-23T13:25:29;20.00;60.20
17182;DHT22;8706;48.254;16.422;2024-02-23T13:27:55;19.90;60.20
17182;DHT22;8706;48.254;16.422;2024-02-23T13:30:24;19.90;60.20
17182;DHT22;8706;48.254;16.422;2024-02-23T13:32:52;19.90;60.20
17182;DHT22;8706;48.254;16.422;2024-02-23T13:35:19;19.90;60.20
17182;DHT22;8706;48.254;16.422;2024-02-23T13:37:46;19.90;60.30
17182;DHT22;8706;48.254;16.422;2024-02-23T13:40:12;19.90;60.40
17182;DHT22;8706;48.254;16.422;2024-02-23T13:42:40;19.90;60.30
17182;DHT22;8706;48.254;16.422;2024-02-23T13:45:08;19.90;60.40
17182;DHT22;8706;48.254;16.422;2024-02-23T13:47:36;19.90;60.30
17182;DHT22;8706;48.254;16.422;2024-02-23T13:50:04;19.90;60.40
17182;DHT22;8706;48.254;16.422;2024-02-23T13:52:31;19.90;60.40
17182;DHT22;8706;48.254;16.422;2024-02-23T13:54:58;19.90;60.40
17182;DHT22;8706;48.254;16.422;2024-02-23T13:57:25;19.90;60.40
17182;DHT22;8706;48.254;16.422;2024-02-23T13:59:52;19.90;60.30
17182;DHT22;8706;48.254;16.422;2024-02-23T14:02:25;19.90;60.40
17182;DHT22;8706;48.254;16.422;2024-02-23T14:05:00;19.90;60.30
17182;DHT22;8706;48.254;16.422;2024-02-23T14:07:29;19.90;60.40
17182;DHT22;8706;48.254;16.422;2024-02-23T14:09:56;19.90;60.40
17182;DHT22;8706;48.254;16.422;2024-02-23T14:12:23;19.90;60.40
17182;DHT22;8706;48.254;16.422;2024-02-23T14:14:49;19.90;60.50
17182;DHT22;8706;48.254;16.422;2024-02-23T14:17:16;19.80;60.40
17182;DHT22;8706;48.254;16.422;2024-02-23T14:19:43;19.80;60.40
17182;DHT22;8706;48.254;16.422;2024-02-23T14:22:12;19.80;60.40
17182;DHT22;8706;48.254;16.422;2024-02-23T14:24:39;19.90;60.40
17182;DHT22;8706;48.254;16.422;2024-02-23T14:27:06;19.90;60.40
17182;DHT22;8706;48.254;16.422;2024-02-23T14:29:33;19.90;60.40
17182;DHT22;8706;48.254;16.422;2024-02-23T14:32:00;19.80;60.40
17182;DHT22;8706;48.254;16.422;2024-02-23T14:34:27;19.90;60.40
17182;DHT22;8706;48.254;16.422;2024-02-23T14:36:55;19.90;60.50
17182;DHT22;8706;48.254;16.422;2024-02-23T14:39:23;19.90;60.50
17182;DHT22;8706;48.254;16.422;2024-02-23T14:41:50;19.80;60.50
17182;DHT22;8706;48.254;16.422;2024-02-23T14:44:17;19.80;60.40
17182;DHT22;8706;48.254;16.422;2024-02-23T14:46:44;19.80;60.40
17182;DHT22;8706;48.254;16.422;2024-02-23T14:49:11;19.80;60.50
17182;DHT22;8706;48.254;16.422;2024-02-23T14:51:38;19.80;60.40
17182;DHT22;8706;48.254;16.422;2024-02-23T14:54:08;19.80;60.50
17182;DHT22;8706;48.254;16.422;2024-02-23T14:56:36;19.80;60.50
17182;DHT22;8706;48.254;16.422;2024-02-23T14:59:03;19.80;60.60
17182;DHT22;8706;48.254;16.422;2024-02-23T15:01:30;19.80;60.60
17182;DHT22;8706;48.254;16.422;2024-02-23T15:03:57;19.80;60.60
17182;DHT22;8706;48.254;16.422;2024-02-23T15:06:23;19.70;60.60
17182;DHT22;8706;48.254;16.422;2024-02-23T15:08:49;19.80;60.70
17182;DHT22;8706;48.254;16.422;2024-02-23T15:11:16;19.80;60.70
17182;DHT22;8706;48.254;16.422;2024-02-23T15:13:45;19.80;60.70
17182;DHT22;8706;48.254;16.422;2024-02-23T15:16:11;19.70;60.70
17182;DHT22;8706;48.254;16.422;2024-02-23T15:18:38;19.70;60.70
17182;DHT22;8706;48.254;16.422;2024-02-23T15:21:05;19.70;60.70
17182;DHT22;8706;48.254;16.422;2024-02-23T15:23:32;19.70;60.70
17182;DHT22;8706;48.254;16.422;2024-02-23T15:25:59;19.70;60.70
17182;DHT22;8706;48.254;16.422;2024-02-23T15:28:26;19.70;60.70
17182;DHT22;8706;48.254;16.422;2024-02-23T15:30:55;19.70;60.70